sensor_id;sensor_type;location;lat;lon;timestamp;P1;durP1;ratioP1;P2;durP2;ratioP2
52962;SDS011;38827;53.024;6.596;2023-04-08T00:00:35;10.93;;;7.97;;
52962;SDS011;38827;53.024;6.596;2023-04-08T00:03:01;10.25;;;8.05;;
52962;SDS011;38827;53.024;6.596;2023-04-08T00:05:27;11.73;;;8.80;;
52962;SDS011;38827;53.024;6.596;2023-04-08T00:07:53;13.90;;;9.00;;
52962;SDS011;38827;53.024;6.596;2023-04-08T00:10:19;14.25;;;8.88;;
52962;SDS011;38827;53.024;6.596;2023-04-08T00:12:47;12.95;;;8.60;;
52962;SDS011;38827;53.024;6.596;2023-04-08T00:15:17;11.55;;;9.00;;
52962;SDS011;38827;53.024;6.596;2023-04-08T00:17:43;14.32;;;8.63;;
52962;SDS011;38827;53.024;6.596;2023-04-08T00:20:09;11.35;;;8.68;;
52962;SDS011;38827;53.024;6.596;2023-04-08T00:22:35;15.77;;;10.52;;
52962;SDS011;38827;53.024;6.596;2023-04-08T00:25:01;17.60;;;9.40;;
52962;SDS011;38827;53.024;6.596;2023-04-08T00:27:30;13.48;;;9.55;;
52962;SDS011;38827;53.024;6.596;2023-04-08T00:29:57;14.25;;;9.63;;
52962;SDS011;38827;53.024;6.596;2023-04-08T00:34:49;12.77;;;9.37;;
52962;SDS011;38827;53.024;6.596;2023-04-08T00:37:15;14.13;;;9.88;;
52962;SDS011;38827;53.024;6.596;2023-04-08T00:39:41;13.93;;;10.73;;
52962;SDS011;38827;53.024;6.596;2023-04-08T00:42:07;15.60;;;9.88;;
52962;SDS011;38827;53.024;6.596;2023-04-08T00:44:33;15.05;;;10.18;;
52962;SDS011;38827;53.024;6.596;2023-04-08T00:46:59;16.63;;;11.38;;
52962;SDS011;38827;53.024;6.596;2023-04-08T00:49:25;14.43;;;11.25;;
52962;SDS011;38827;53.024;6.596;2023-04-08T00:51:51;13.77;;;10.32;;
52962;SDS011;38827;53.024;6.596;2023-04-08T00:54:17;16.17;;;11.68;;
52962;SDS011;38827;53.024;6.596;2023-04-08T00:56:43;16.10;;;11.48;;
52962;SDS011;38827;53.024;6.596;2023-04-08T00:59:09;15.60;;;11.48;;
52962;SDS011;38827;53.024;6.596;2023-04-08T01:04:48;15.90;;;12.40;;
52962;SDS011;38827;53.024;6.596;2023-04-08T01:07:30;16.88;;;11.60;;
52962;SDS011;38827;53.024;6.596;2023-04-08T01:10:05;15.57;;;11.70;;
52962;SDS011;38827;53.024;6.596;2023-04-08T01:12:39;16.42;;;11.77;;
52962;SDS011;38827;53.024;6.596;2023-04-08T01:15:08;20.33;;;12.20;;
52962;SDS011;38827;53.024;6.596;2023-04-08T01:17:36;18.27;;;12.10;;
52962;SDS011;38827;53.024;6.596;2023-04-08T01:20:03;17.27;;;12.88;;
52962;SDS011;38827;53.024;6.596;2023-04-08T01:22:38;19.30;;;12.50;;
52962;SDS011;38827;53.024;6.596;2023-04-08T01:25:18;14.55;;;11.55;;
52962;SDS011;38827;53.024;6.596;2023-04-08T01:28:06;18.42;;;12.25;;
52962;SDS011;38827;53.024;6.596;2023-04-08T01:30:37;16.45;;;12.15;;
52962;SDS011;38827;53.024;6.596;2023-04-08T01:33:04;18.58;;;12.00;;
52962;SDS011;38827;53.024;6.596;2023-04-08T01:35:31;15.80;;;11.88;;
52962;SDS011;38827;53.024;6.596;2023-04-08T01:37:58;16.53;;;11.80;;
52962;SDS011;38827;53.024;6.596;2023-04-08T01:40:24;17.75;;;12.15;;
52962;SDS011;38827;53.024;6.596;2023-04-08T01:42:51;18.97;;;13.27;;
52962;SDS011;38827;53.024;6.596;2023-04-08T01:45:20;18.55;;;13.00;;
52962;SDS011;38827;53.024;6.596;2023-04-08T01:47:47;18.77;;;12.77;;
52962;SDS011;38827;53.024;6.596;2023-04-08T01:50:14;20.95;;;13.00;;
52962;SDS011;38827;53.024;6.596;2023-04-08T01:52:42;18.63;;;13.20;;
52962;SDS011;38827;53.024;6.596;2023-04-08T01:55:09;18.25;;;13.02;;
52962;SDS011;38827;53.024;6.596;2023-04-08T01:57:36;21.08;;;14.10;;
52962;SDS011;38827;53.024;6.596;2023-04-08T02:00:12;19.30;;;13.80;;
52962;SDS011;38827;53.024;6.596;2023-04-08T02:02:39;20.67;;;14.05;;
52962;SDS011;38827;53.024;6.596;2023-04-08T02:05:17;19.10;;;13.98;;
52962;SDS011;38827;53.024;6.596;2023-04-08T02:07:43;21.27;;;14.00;;
52962;SDS011;38827;53.024;6.596;2023-04-08T02:10:10;20.83;;;14.43;;
52962;SDS011;38827;53.024;6.596;2023-04-08T02:12:36;20.17;;;14.30;;
52962;SDS011;38827;53.024;6.596;2023-04-08T02:15:02;20.77;;;15.18;;
52962;SDS011;38827;53.024;6.596;2023-04-08T02:20:10;19.75;;;14.23;;
52962;SDS011;38827;53.024;6.596;2023-04-08T02:22:56;22.83;;;15.57;;
52962;SDS011;38827;53.024;6.596;2023-04-08T02:25:44;23.05;;;15.65;;
52962;SDS011;38827;53.024;6.596;2023-04-08T02:28:12;22.50;;;15.00;;
52962;SDS011;38827;53.024;6.596;2023-04-08T02:30:44;21.20;;;15.77;;
52962;SDS011;38827;53.024;6.596;2023-04-08T02:33:13;20.88;;;15.40;;
52962;SDS011;38827;53.024;6.596;2023-04-08T02:35:43;22.52;;;15.70;;
52962;SDS011;38827;53.024;6.596;2023-04-08T02:38:09;21.60;;;16.02;;
52962;SDS011;38827;53.024;6.596;2023-04-08T02:40:35;23.67;;;15.70;;
52962;SDS011;38827;53.024;6.596;2023-04-08T02:43:01;20.63;;;16.08;;
52962;SDS011;38827;53.024;6.596;2023-04-08T02:45:31;21.15;;;16.25;;
52962;SDS011;38827;53.024;6.596;2023-04-08T02:48:01;22.95;;;16.60;;
52962;SDS011;38827;53.024;6.596;2023-04-08T02:50:27;21.75;;;15.88;;
52962;SDS011;38827;53.024;6.596;2023-04-08T02:52:53;23.75;;;17.48;;
52962;SDS011;38827;53.024;6.596;2023-04-08T02:55:18;25.42;;;16.70;;
52962;SDS011;38827;53.024;6.596;2023-04-08T02:57:45;25.15;;;17.58;;
52962;SDS011;38827;53.024;6.596;2023-04-08T03:00:11;25.15;;;17.92;;
52962;SDS011;38827;53.024;6.596;2023-04-08T03:02:37;25.23;;;16.40;;
52962;SDS011;38827;53.024;6.596;2023-04-08T03:05:03;24.90;;;17.95;;
52962;SDS011;38827;53.024;6.596;2023-04-08T03:07:29;26.42;;;17.75;;
52962;SDS011;38827;53.024;6.596;2023-04-08T03:09:55;24.10;;;16.97;;
52962;SDS011;38827;53.024;6.596;2023-04-08T03:12:21;24.85;;;16.80;;
52962;SDS011;38827;53.024;6.596;2023-04-08T03:14:47;23.77;;;16.98;;
52962;SDS011;38827;53.024;6.596;2023-04-08T03:17:14;26.63;;;17.58;;
52962;SDS011;38827;53.024;6.596;2023-04-08T03:19:40;27.27;;;18.27;;
52962;SDS011;38827;53.024;6.596;2023-04-08T03:22:06;25.55;;;17.30;;
52962;SDS011;38827;53.024;6.596;2023-04-08T03:24:33;25.10;;;18.38;;
52962;SDS011;38827;53.024;6.596;2023-04-08T03:27:00;24.10;;;17.87;;
52962;SDS011;38827;53.024;6.596;2023-04-08T03:29:25;28.30;;;18.88;;
52962;SDS011;38827;53.024;6.596;2023-04-08T03:31:56;27.27;;;18.25;;
52962;SDS011;38827;53.024;6.596;2023-04-08T03:34:22;27.58;;;19.50;;
52962;SDS011;38827;53.024;6.596;2023-04-08T03:36:47;25.58;;;19.55;;
52962;SDS011;38827;53.024;6.596;2023-04-08T03:39:13;27.48;;;19.90;;
52962;SDS011;38827;53.024;6.596;2023-04-08T03:41:49;28.55;;;19.83;;
52962;SDS011;38827;53.024;6.596;2023-04-08T03:44:15;27.80;;;19.48;;
52962;SDS011;38827;53.024;6.596;2023-04-08T03:46:40;32.20;;;19.77;;
52962;SDS011;38827;53.024;6.596;2023-04-08T03:49:06;32.38;;;21.27;;
52962;SDS011;38827;53.024;6.596;2023-04-08T03:51:32;28.83;;;19.60;;
52962;SDS011;38827;53.024;6.596;2023-04-08T03:54:00;29.38;;;19.27;;
52962;SDS011;38827;53.024;6.596;2023-04-08T03:56:37;30.73;;;20.70;;
52962;SDS011;38827;53.024;6.596;2023-04-08T03:59:03;32.13;;;21.10;;
52962;SDS011;38827;53.024;6.596;2023-04-08T04:01:28;29.92;;;19.88;;
52962;SDS011;38827;53.024;6.596;2023-04-08T04:03:56;32.45;;;21.00;;
52962;SDS011;38827;53.024;6.596;2023-04-08T04:06:27;31.23;;;20.58;;
52962;SDS011;38827;53.024;6.596;2023-04-08T04:08:53;32.50;;;21.48;;
52962;SDS011;38827;53.024;6.596;2023-04-08T04:11:19;31.98;;;21.55;;
52962;SDS011;38827;53.024;6.596;2023-04-08T04:13:46;31.75;;;21.20;;
52962;SDS011;38827;53.024;6.596;2023-04-08T04:16:13;31.08;;;20.95;;
52962;SDS011;38827;53.024;6.596;2023-04-08T04:18:38;33.25;;;21.67;;
52962;SDS011;38827;53.024;6.596;2023-04-08T04:21:04;31.27;;;22.13;;
52962;SDS011;38827;53.024;6.596;2023-04-08T04:23:31;30.77;;;20.40;;
52962;SDS011;38827;53.024;6.596;2023-04-08T04:25:57;32.67;;;20.70;;
52962;SDS011;38827;53.024;6.596;2023-04-08T04:28:22;33.67;;;21.50;;
52962;SDS011;38827;53.024;6.596;2023-04-08T04:30:48;34.10;;;21.92;;
52962;SDS011;38827;53.024;6.596;2023-04-08T04:33:13;32.13;;;21.63;;
52962;SDS011;38827;53.024;6.596;2023-04-08T04:35:39;35.63;;;23.17;;
52962;SDS011;38827;53.024;6.596;2023-04-08T04:38:05;34.38;;;22.60;;
52962;SDS011;38827;53.024;6.596;2023-04-08T04:40:36;32.45;;;21.08;;
52962;SDS011;38827;53.024;6.596;2023-04-08T04:43:03;34.50;;;22.48;;
52962;SDS011;38827;53.024;6.596;2023-04-08T04:45:29;37.58;;;23.52;;
52962;SDS011;38827;53.024;6.596;2023-04-08T04:47:55;39.40;;;21.88;;
52962;SDS011;38827;53.024;6.596;2023-04-08T04:50:23;35.30;;;22.40;;
52962;SDS011;38827;53.024;6.596;2023-04-08T04:52:49;34.95;;;21.88;;
52962;SDS011;38827;53.024;6.596;2023-04-08T04:55:15;35.92;;;22.05;;
52962;SDS011;38827;53.024;6.596;2023-04-08T04:57:40;34.35;;;21.13;;
52962;SDS011;38827;53.024;6.596;2023-04-08T05:00:06;32.15;;;21.63;;
52962;SDS011;38827;53.024;6.596;2023-04-08T05:02:32;33.63;;;21.58;;
52962;SDS011;38827;53.024;6.596;2023-04-08T05:04:58;33.35;;;22.05;;
52962;SDS011;38827;53.024;6.596;2023-04-08T05:07:30;34.08;;;22.65;;
52962;SDS011;38827;53.024;6.596;2023-04-08T05:10:04;36.55;;;22.67;;
52962;SDS011;38827;53.024;6.596;2023-04-08T05:12:30;40.50;;;24.13;;
52962;SDS011;38827;53.024;6.596;2023-04-08T05:14:57;35.45;;;22.15;;
52962;SDS011;38827;53.024;6.596;2023-04-08T05:17:23;36.53;;;22.85;;
52962;SDS011;38827;53.024;6.596;2023-04-08T05:19:49;34.65;;;23.00;;
52962;SDS011;38827;53.024;6.596;2023-04-08T05:22:16;39.75;;;23.17;;
52962;SDS011;38827;53.024;6.596;2023-04-08T05:24:41;37.38;;;23.85;;
52962;SDS011;38827;53.024;6.596;2023-04-08T05:27:07;36.85;;;23.65;;
52962;SDS011;38827;53.024;6.596;2023-04-08T05:29:32;39.08;;;23.40;;
52962;SDS011;38827;53.024;6.596;2023-04-08T05:31:58;37.67;;;23.38;;
52962;SDS011;38827;53.024;6.596;2023-04-08T05:34:24;41.15;;;23.10;;
52962;SDS011;38827;53.024;6.596;2023-04-08T05:36:49;36.25;;;23.38;;
52962;SDS011;38827;53.024;6.596;2023-04-08T05:39:18;38.90;;;23.05;;
52962;SDS011;38827;53.024;6.596;2023-04-08T05:41:44;33.42;;;21.70;;
52962;SDS011;38827;53.024;6.596;2023-04-08T05:44:10;33.07;;;21.70;;
52962;SDS011;38827;53.024;6.596;2023-04-08T05:49:05;32.60;;;20.57;;
52962;SDS011;38827;53.024;6.596;2023-04-08T05:51:54;38.65;;;22.85;;
52962;SDS011;38827;53.024;6.596;2023-04-08T05:54:20;34.05;;;22.70;;
52962;SDS011;38827;53.024;6.596;2023-04-08T05:56:46;33.33;;;21.67;;
52962;SDS011;38827;53.024;6.596;2023-04-08T05:59:12;32.00;;;21.35;;
52962;SDS011;38827;53.024;6.596;2023-04-08T06:01:38;31.38;;;20.95;;
52962;SDS011;38827;53.024;6.596;2023-04-08T06:04:04;31.42;;;21.65;;
52962;SDS011;38827;53.024;6.596;2023-04-08T06:06:30;32.85;;;20.55;;
52962;SDS011;38827;53.024;6.596;2023-04-08T06:08:55;31.48;;;21.42;;
52962;SDS011;38827;53.024;6.596;2023-04-08T06:11:21;31.63;;;21.33;;
52962;SDS011;38827;53.024;6.596;2023-04-08T06:13:47;31.02;;;21.17;;
52962;SDS011;38827;53.024;6.596;2023-04-08T06:16:15;28.58;;;20.95;;
52962;SDS011;38827;53.024;6.596;2023-04-08T06:18:41;28.65;;;20.45;;
52962;SDS011;38827;53.024;6.596;2023-04-08T06:21:07;27.50;;;19.88;;
52962;SDS011;38827;53.024;6.596;2023-04-08T06:23:33;29.95;;;20.70;;
52962;SDS011;38827;53.024;6.596;2023-04-08T06:25:59;31.38;;;20.17;;
52962;SDS011;38827;53.024;6.596;2023-04-08T06:28:25;32.92;;;22.52;;
52962;SDS011;38827;53.024;6.596;2023-04-08T06:30:50;31.95;;;22.05;;
52962;SDS011;38827;53.024;6.596;2023-04-08T06:33:16;29.27;;;21.27;;
52962;SDS011;38827;53.024;6.596;2023-04-08T06:35:42;28.73;;;21.10;;
52962;SDS011;38827;53.024;6.596;2023-04-08T06:38:07;33.10;;;21.88;;
52962;SDS011;38827;53.024;6.596;2023-04-08T06:40:33;30.83;;;22.45;;
52962;SDS011;38827;53.024;6.596;2023-04-08T06:42:59;32.55;;;22.48;;
52962;SDS011;38827;53.024;6.596;2023-04-08T06:45:25;30.52;;;20.55;;
52962;SDS011;38827;53.024;6.596;2023-04-08T06:47:50;32.38;;;21.90;;
52962;SDS011;38827;53.024;6.596;2023-04-08T06:50:16;27.50;;;20.30;;
52962;SDS011;38827;53.024;6.596;2023-04-08T06:52:42;29.83;;;21.42;;
52962;SDS011;38827;53.024;6.596;2023-04-08T06:55:09;27.75;;;20.85;;
52962;SDS011;38827;53.024;6.596;2023-04-08T06:57:40;27.00;;;19.95;;
52962;SDS011;38827;53.024;6.596;2023-04-08T07:00:08;25.15;;;19.42;;
52962;SDS011;38827;53.024;6.596;2023-04-08T07:02:34;27.08;;;18.85;;
52962;SDS011;38827;53.024;6.596;2023-04-08T07:05:00;28.33;;;19.60;;
52962;SDS011;38827;53.024;6.596;2023-04-08T07:07:26;26.63;;;19.17;;
52962;SDS011;38827;53.024;6.596;2023-04-08T07:09:52;23.75;;;18.00;;
52962;SDS011;38827;53.024;6.596;2023-04-08T07:12:17;24.35;;;18.45;;
52962;SDS011;38827;53.024;6.596;2023-04-08T07:14:43;23.33;;;18.85;;
52962;SDS011;38827;53.024;6.596;2023-04-08T07:17:08;24.05;;;19.33;;
52962;SDS011;38827;53.024;6.596;2023-04-08T07:19:34;21.88;;;17.38;;
52962;SDS011;38827;53.024;6.596;2023-04-08T07:22:03;22.55;;;18.10;;
52962;SDS011;38827;53.024;6.596;2023-04-08T07:24:40;20.63;;;16.48;;
52962;SDS011;38827;53.024;6.596;2023-04-08T07:29:33;20.03;;;16.73;;
52962;SDS011;38827;53.024;6.596;2023-04-08T07:32:01;19.10;;;15.68;;
52962;SDS011;38827;53.024;6.596;2023-04-08T07:34:26;19.08;;;16.02;;
52962;SDS011;38827;53.024;6.596;2023-04-08T07:36:52;18.40;;;15.13;;
52962;SDS011;38827;53.024;6.596;2023-04-08T07:39:21;18.17;;;15.02;;
52962;SDS011;38827;53.024;6.596;2023-04-08T07:42:02;19.15;;;15.93;;
52962;SDS011;38827;53.024;6.596;2023-04-08T07:44:30;20.83;;;15.68;;
52962;SDS011;38827;53.024;6.596;2023-04-08T07:46:57;18.13;;;15.18;;
52962;SDS011;38827;53.024;6.596;2023-04-08T07:49:22;16.52;;;13.95;;
52962;SDS011;38827;53.024;6.596;2023-04-08T07:51:48;18.60;;;14.43;;
52962;SDS011;38827;53.024;6.596;2023-04-08T07:54:15;17.25;;;14.60;;
52962;SDS011;38827;53.024;6.596;2023-04-08T07:56:44;17.57;;;13.97;;
52962;SDS011;38827;53.024;6.596;2023-04-08T07:59:10;15.02;;;13.43;;
52962;SDS011;38827;53.024;6.596;2023-04-08T08:01:36;15.82;;;13.88;;
52962;SDS011;38827;53.024;6.596;2023-04-08T08:04:02;16.83;;;14.07;;
52962;SDS011;38827;53.024;6.596;2023-04-08T08:09:07;17.30;;;13.90;;
52962;SDS011;38827;53.024;6.596;2023-04-08T08:11:32;18.17;;;15.05;;
52962;SDS011;38827;53.024;6.596;2023-04-08T08:13:58;17.42;;;14.52;;
52962;SDS011;38827;53.024;6.596;2023-04-08T08:16:42;17.45;;;14.05;;
52962;SDS011;38827;53.024;6.596;2023-04-08T08:19:13;17.85;;;14.35;;
52962;SDS011;38827;53.024;6.596;2023-04-08T08:21:39;16.42;;;13.75;;
52962;SDS011;38827;53.024;6.596;2023-04-08T08:24:05;16.50;;;13.88;;
52962;SDS011;38827;53.024;6.596;2023-04-08T08:26:31;17.25;;;14.05;;
52962;SDS011;38827;53.024;6.596;2023-04-08T08:28:59;17.23;;;14.45;;
52962;SDS011;38827;53.024;6.596;2023-04-08T08:31:25;15.32;;;13.73;;
52962;SDS011;38827;53.024;6.596;2023-04-08T08:33:51;16.42;;;13.23;;
52962;SDS011;38827;53.024;6.596;2023-04-08T08:36:16;17.58;;;14.13;;
52962;SDS011;38827;53.024;6.596;2023-04-08T08:38:42;15.85;;;13.25;;
52962;SDS011;38827;53.024;6.596;2023-04-08T08:41:11;14.18;;;12.55;;
52962;SDS011;38827;53.024;6.596;2023-04-08T08:43:37;15.38;;;13.32;;
52962;SDS011;38827;53.024;6.596;2023-04-08T08:46:03;14.60;;;12.32;;
52962;SDS011;38827;53.024;6.596;2023-04-08T08:48:28;17.67;;;13.38;;
52962;SDS011;38827;53.024;6.596;2023-04-08T08:50:56;13.32;;;11.93;;
52962;SDS011;38827;53.024;6.596;2023-04-08T08:53:26;14.00;;;12.50;;
52962;SDS011;38827;53.024;6.596;2023-04-08T08:55:54;12.98;;;11.68;;
52962;SDS011;38827;53.024;6.596;2023-04-08T08:58:19;15.18;;;13.50;;
52962;SDS011;38827;53.024;6.596;2023-04-08T09:00:45;14.60;;;12.90;;
52962;SDS011;38827;53.024;6.596;2023-04-08T09:05:47;14.18;;;12.07;;
52962;SDS011;38827;53.024;6.596;2023-04-08T09:08:31;13.80;;;12.40;;
52962;SDS011;38827;53.024;6.596;2023-04-08T09:11:11;13.77;;;12.18;;
52962;SDS011;38827;53.024;6.596;2023-04-08T09:13:39;14.60;;;12.27;;
52962;SDS011;38827;53.024;6.596;2023-04-08T09:16:05;13.68;;;12.23;;
52962;SDS011;38827;53.024;6.596;2023-04-08T09:18:33;13.68;;;12.27;;
52962;SDS011;38827;53.024;6.596;2023-04-08T09:23:38;13.05;;;11.55;;
52962;SDS011;38827;53.024;6.596;2023-04-08T09:26:10;13.35;;;11.75;;
52962;SDS011;38827;53.024;6.596;2023-04-08T09:28:38;16.27;;;13.55;;
52962;SDS011;38827;53.024;6.596;2023-04-08T09:31:24;14.48;;;12.75;;
52962;SDS011;38827;53.024;6.596;2023-04-08T09:33:57;14.68;;;13.02;;
52962;SDS011;38827;53.024;6.596;2023-04-08T09:36:27;14.55;;;13.00;;
52962;SDS011;38827;53.024;6.596;2023-04-08T09:38:53;16.17;;;13.45;;
52962;SDS011;38827;53.024;6.596;2023-04-08T09:41:20;15.02;;;12.65;;
52962;SDS011;38827;53.024;6.596;2023-04-08T09:43:52;16.00;;;13.68;;
52962;SDS011;38827;53.024;6.596;2023-04-08T09:49:28;14.90;;;12.60;;
52962;SDS011;38827;53.024;6.596;2023-04-08T09:52:07;15.30;;;13.70;;
52962;SDS011;38827;53.024;6.596;2023-04-08T09:55:04;15.73;;;12.27;;
52962;SDS011;38827;53.024;6.596;2023-04-08T09:57:48;13.55;;;12.15;;
52962;SDS011;38827;53.024;6.596;2023-04-08T10:00:19;13.88;;;11.80;;
52962;SDS011;38827;53.024;6.596;2023-04-08T10:05:39;14.77;;;12.30;;
52962;SDS011;38827;53.024;6.596;2023-04-08T10:08:06;14.93;;;12.68;;
52962;SDS011;38827;53.024;6.596;2023-04-08T10:10:35;12.82;;;11.38;;
52962;SDS011;38827;53.024;6.596;2023-04-08T10:13:03;12.48;;;10.50;;
52962;SDS011;38827;53.024;6.596;2023-04-08T10:15:31;14.18;;;11.73;;
52962;SDS011;38827;53.024;6.596;2023-04-08T10:23:03;14.02;;;11.18;;
52962;SDS011;38827;53.024;6.596;2023-04-08T10:25:39;12.82;;;11.20;;
52962;SDS011;38827;53.024;6.596;2023-04-08T10:33:12;11.48;;;9.43;;
52962;SDS011;38827;53.024;6.596;2023-04-08T10:35:41;12.30;;;10.18;;
52962;SDS011;38827;53.024;6.596;2023-04-08T10:38:14;10.90;;;9.38;;
52962;SDS011;38827;53.024;6.596;2023-04-08T10:40:42;12.85;;;9.20;;
52962;SDS011;38827;53.024;6.596;2023-04-08T10:43:09;10.93;;;9.02;;
52962;SDS011;38827;53.024;6.596;2023-04-08T10:50:36;9.13;;;7.63;;
52962;SDS011;38827;53.024;6.596;2023-04-08T10:53:01;10.40;;;8.68;;
52962;SDS011;38827;53.024;6.596;2023-04-08T10:55:27;10.32;;;8.45;;
52962;SDS011;38827;53.024;6.596;2023-04-08T10:57:53;10.40;;;8.30;;
52962;SDS011;38827;53.024;6.596;2023-04-08T11:00:31;11.43;;;9.20;;
52962;SDS011;38827;53.024;6.596;2023-04-08T11:03:07;10.15;;;8.63;;
52962;SDS011;38827;53.024;6.596;2023-04-08T11:05:34;10.70;;;8.98;;
52962;SDS011;38827;53.024;6.596;2023-04-08T11:08:02;10.65;;;8.38;;
52962;SDS011;38827;53.024;6.596;2023-04-08T11:10:29;11.48;;;9.00;;
52962;SDS011;38827;53.024;6.596;2023-04-08T11:12:55;11.73;;;8.77;;
52962;SDS011;38827;53.024;6.596;2023-04-08T11:15:21;10.77;;;8.77;;
52962;SDS011;38827;53.024;6.596;2023-04-08T11:17:49;12.45;;;9.68;;
52962;SDS011;38827;53.024;6.596;2023-04-08T11:20:15;11.70;;;9.60;;
52962;SDS011;38827;53.024;6.596;2023-04-08T11:22:42;13.50;;;10.20;;
52962;SDS011;38827;53.024;6.596;2023-04-08T11:25:09;11.35;;;9.77;;
52962;SDS011;38827;53.024;6.596;2023-04-08T11:27:36;15.38;;;10.32;;
52962;SDS011;38827;53.024;6.596;2023-04-08T11:30:03;13.32;;;10.57;;
52962;SDS011;38827;53.024;6.596;2023-04-08T11:32:30;13.90;;;10.43;;
52962;SDS011;38827;53.024;6.596;2023-04-08T11:35:01;15.70;;;11.38;;
52962;SDS011;38827;53.024;6.596;2023-04-08T11:37:36;13.57;;;10.80;;
52962;SDS011;38827;53.024;6.596;2023-04-08T11:40:05;14.88;;;10.82;;
52962;SDS011;38827;53.024;6.596;2023-04-08T11:42:33;14.68;;;10.80;;
52962;SDS011;38827;53.024;6.596;2023-04-08T11:44:59;15.63;;;10.70;;
52962;SDS011;38827;53.024;6.596;2023-04-08T11:47:31;13.10;;;9.98;;
52962;SDS011;38827;53.024;6.596;2023-04-08T11:49:57;15.27;;;11.05;;
52962;SDS011;38827;53.024;6.596;2023-04-08T11:52:47;14.80;;;10.20;;
52962;SDS011;38827;53.024;6.596;2023-04-08T11:55:27;15.13;;;11.32;;
52962;SDS011;38827;53.024;6.596;2023-04-08T11:57:55;16.05;;;11.95;;
52962;SDS011;38827;53.024;6.596;2023-04-08T12:00:25;17.25;;;13.25;;
52962;SDS011;38827;53.024;6.596;2023-04-08T12:02:52;14.85;;;11.95;;
52962;SDS011;38827;53.024;6.596;2023-04-08T12:05:17;18.17;;;13.48;;
52962;SDS011;38827;53.024;6.596;2023-04-08T12:07:43;18.17;;;13.27;;
52962;SDS011;38827;53.024;6.596;2023-04-08T12:10:10;18.48;;;13.32;;
52962;SDS011;38827;53.024;6.596;2023-04-08T12:12:36;19.65;;;13.88;;
52962;SDS011;38827;53.024;6.596;2023-04-08T12:15:02;20.48;;;15.02;;
52962;SDS011;38827;53.024;6.596;2023-04-08T12:17:28;21.97;;;15.33;;
52962;SDS011;38827;53.024;6.596;2023-04-08T12:19:54;22.00;;;15.88;;
52962;SDS011;38827;53.024;6.596;2023-04-08T12:22:21;25.63;;;17.25;;
52962;SDS011;38827;53.024;6.596;2023-04-08T12:24:47;27.33;;;17.53;;
52962;SDS011;38827;53.024;6.596;2023-04-08T12:27:13;27.92;;;18.38;;
52962;SDS011;38827;53.024;6.596;2023-04-08T12:29:38;23.88;;;16.45;;
52962;SDS011;38827;53.024;6.596;2023-04-08T12:32:04;25.77;;;16.65;;
52962;SDS011;38827;53.024;6.596;2023-04-08T12:34:30;26.77;;;17.55;;
52962;SDS011;38827;53.024;6.596;2023-04-08T12:36:57;25.02;;;16.73;;
52962;SDS011;38827;53.024;6.596;2023-04-08T12:39:23;23.23;;;15.30;;
52962;SDS011;38827;53.024;6.596;2023-04-08T12:41:49;23.15;;;15.07;;
52962;SDS011;38827;53.024;6.596;2023-04-08T12:44:15;23.42;;;16.02;;
52962;SDS011;38827;53.024;6.596;2023-04-08T12:46:40;25.27;;;16.88;;
52962;SDS011;38827;53.024;6.596;2023-04-08T12:49:06;25.13;;;16.55;;
52962;SDS011;38827;53.024;6.596;2023-04-08T12:51:33;25.17;;;16.80;;
52962;SDS011;38827;53.024;6.596;2023-04-08T12:54:02;26.92;;;16.52;;
52962;SDS011;38827;53.024;6.596;2023-04-08T12:56:33;30.38;;;18.77;;
52962;SDS011;38827;53.024;6.596;2023-04-08T12:59:00;28.85;;;18.17;;
52962;SDS011;38827;53.024;6.596;2023-04-08T13:01:26;31.77;;;20.73;;
52962;SDS011;38827;53.024;6.596;2023-04-08T13:03:51;24.83;;;17.42;;
52962;SDS011;38827;53.024;6.596;2023-04-08T13:06:26;29.75;;;19.10;;
52962;SDS011;38827;53.024;6.596;2023-04-08T13:09:07;26.33;;;17.83;;
52962;SDS011;38827;53.024;6.596;2023-04-08T13:11:59;28.85;;;17.73;;
52962;SDS011;38827;53.024;6.596;2023-04-08T13:14:28;29.52;;;17.95;;
52962;SDS011;38827;53.024;6.596;2023-04-08T13:17:03;26.17;;;18.10;;
52962;SDS011;38827;53.024;6.596;2023-04-08T13:19:40;29.42;;;19.38;;
52962;SDS011;38827;53.024;6.596;2023-04-08T13:22:16;30.98;;;19.70;;
52962;SDS011;38827;53.024;6.596;2023-04-08T13:24:47;33.13;;;20.42;;
52962;SDS011;38827;53.024;6.596;2023-04-08T13:27:18;29.90;;;18.83;;
52962;SDS011;38827;53.024;6.596;2023-04-08T13:29:55;28.17;;;19.60;;
52962;SDS011;38827;53.024;6.596;2023-04-08T13:32:42;28.63;;;18.63;;
52962;SDS011;38827;53.024;6.596;2023-04-08T13:35:19;29.42;;;18.98;;
52962;SDS011;38827;53.024;6.596;2023-04-08T13:37:50;28.98;;;19.15;;
52962;SDS011;38827;53.024;6.596;2023-04-08T13:40:31;29.15;;;20.15;;
52962;SDS011;38827;53.024;6.596;2023-04-08T13:43:21;28.00;;;19.35;;
52962;SDS011;38827;53.024;6.596;2023-04-08T13:46:01;30.83;;;19.02;;
52962;SDS011;38827;53.024;6.596;2023-04-08T13:48:40;31.17;;;19.98;;
52962;SDS011;38827;53.024;6.596;2023-04-08T13:51:23;29.83;;;19.13;;
52962;SDS011;38827;53.024;6.596;2023-04-08T13:53:55;29.70;;;20.58;;
52962;SDS011;38827;53.024;6.596;2023-04-08T13:56:35;28.70;;;20.05;;
52962;SDS011;38827;53.024;6.596;2023-04-08T13:59:22;27.58;;;17.92;;
52962;SDS011;38827;53.024;6.596;2023-04-08T14:01:58;27.95;;;18.63;;
52962;SDS011;38827;53.024;6.596;2023-04-08T14:04:41;29.30;;;18.67;;
52962;SDS011;38827;53.024;6.596;2023-04-08T14:07:21;27.15;;;18.40;;
52962;SDS011;38827;53.024;6.596;2023-04-08T14:10:01;25.83;;;18.58;;
52962;SDS011;38827;53.024;6.596;2023-04-08T14:12:31;26.73;;;18.13;;
52962;SDS011;38827;53.024;6.596;2023-04-08T14:15:07;22.58;;;18.05;;
52962;SDS011;38827;53.024;6.596;2023-04-08T14:17:35;27.55;;;18.40;;
52962;SDS011;38827;53.024;6.596;2023-04-08T14:22:29;22.88;;;17.58;;
52962;SDS011;38827;53.024;6.596;2023-04-08T14:24:55;24.50;;;18.55;;
52962;SDS011;38827;53.024;6.596;2023-04-08T14:27:21;26.73;;;18.70;;
52962;SDS011;38827;53.024;6.596;2023-04-08T14:29:46;22.35;;;18.13;;
52962;SDS011;38827;53.024;6.596;2023-04-08T14:32:12;23.30;;;18.13;;
52962;SDS011;38827;53.024;6.596;2023-04-08T14:34:40;22.85;;;18.40;;
52962;SDS011;38827;53.024;6.596;2023-04-08T14:37:12;26.35;;;19.20;;
52962;SDS011;38827;53.024;6.596;2023-04-08T14:39:56;24.27;;;18.13;;
52962;SDS011;38827;53.024;6.596;2023-04-08T14:42:50;25.05;;;18.27;;
52962;SDS011;38827;53.024;6.596;2023-04-08T14:45:47;30.45;;;21.13;;
52962;SDS011;38827;53.024;6.596;2023-04-08T14:48:54;28.92;;;20.30;;
52962;SDS011;38827;53.024;6.596;2023-04-08T14:51:37;25.67;;;20.65;;
52962;SDS011;38827;53.024;6.596;2023-04-08T14:54:26;30.88;;;22.05;;
52962;SDS011;38827;53.024;6.596;2023-04-08T14:57:08;27.52;;;21.70;;
52962;SDS011;38827;53.024;6.596;2023-04-08T14:59:51;28.80;;;22.70;;
52962;SDS011;38827;53.024;6.596;2023-04-08T15:02:43;29.45;;;22.58;;
52962;SDS011;38827;53.024;6.596;2023-04-08T15:05:18;27.98;;;22.42;;
52962;SDS011;38827;53.024;6.596;2023-04-08T15:08:05;28.50;;;23.63;;
52962;SDS011;38827;53.024;6.596;2023-04-08T15:10:48;30.30;;;24.27;;
52962;SDS011;38827;53.024;6.596;2023-04-08T15:13:43;32.30;;;26.08;;
52962;SDS011;38827;53.024;6.596;2023-04-08T15:16:24;29.80;;;24.73;;
52962;SDS011;38827;53.024;6.596;2023-04-08T15:19:17;34.08;;;27.48;;
52962;SDS011;38827;53.024;6.596;2023-04-08T15:22:03;29.08;;;24.73;;